This is the latest recevied weather packets stored in our database for station/object K6QM-1. If no packets are shown the sender has not sent any weather packets the latest 10 day(s).
| Time | Temp. | Humidity | Pressure | Rain* | Wind** | Luminosity | Snow |
|---|---|---|---|---|---|---|---|
| 1777493410 | 24.44° C | 40% | 1017.6 hPa | - | - | - | - |
| 1777490709 | 23.89° C | 42% | 1018.1 hPa | - | - | - | - |
| 1777479908 | 18.89° C | 54% | 1019.3 hPa | - | - | - | - |
| 1777477208 | 13.89° C | 63% | 1015.7 hPa | - | - | - | - |
| 1777470907 | 13.33° C | 64% | 1019.3 hPa | - | - | - | - |
| 1777469107 | 12.78° C | 63% | 1019.6 hPa | - | - | - | - |
| 1777468208 | 12.78° C | 63% | 1019.2 hPa | - | - | - | - |
| 1777465506 | 13.33° C | 63% | 1018.9 hPa | - | - | - | - |
| 1777464606 | 13.33° C | 63% | 1018.9 hPa | - | - | - | - |
| 1777462806 | 13.89° C | 62% | 1018.6 hPa | - | - | - | - |
| 1777461907 | 13.89° C | 62% | 1018.5 hPa | - | - | - | - |
| 1777460106 | 13.89° C | 62% | 1018.7 hPa | - | - | - | - |
| 1777459206 | 13.89° C | 62% | 1018.6 hPa | - | - | - | - |
| 1777457406 | 14.44° C | 62% | 1018.6 hPa | - | - | - | - |
| 1777455605 | 14.44° C | 63% | 1018.7 hPa | - | - | - | - |
| 1777454706 | 14.44° C | 61% | 1018.8 hPa | - | - | - | - |
| 1777453805 | 15° C | 61% | 1019 hPa | - | - | - | - |
| 1777452005 | 15° C | 60% | 1019.4 hPa | - | - | - | - |
| 1777451106 | 15° C | 60% | 1019.6 hPa | - | - | - | - |
| 1777450205 | 15° C | 61% | 1019.6 hPa | - | - | - | - |
| 1777449305 | 15.56° C | 60% | 1019.7 hPa | - | - | - | - |
| 1777448405 | 15.56° C | 60% | 1019.7 hPa | - | - | - | - |
| 1777447505 | 15.56° C | 60% | 1019.6 hPa | - | - | - | - |
| 1777446605 | 15.56° C | 59% | 1019.7 hPa | - | - | - | - |
| 1777445704 | 16.11° C | 59% | 1019.6 hPa | - | - | - | - |
* Rain since midnight (hover to see other rain measurements)
** Current wind speed in m/s (hover to see current wind gust speed)